Impacts METAR Board INFO
IDs:

KDCA - Washington/National, VA, US

Updated at: 1325 UTC 25 Feb 2018
Potential Impact None Slight Moderate High
Time25/01Z 25/02Z 25/03Z 25/04Z 25/05Z 25/06Z 25/07Z 25/08Z 25/09Z 25/10Z 25/11Z 25/12Z 25/13Z
VIS10 10 3 4 7 8 10 8 6 4 2.5 1.25 1.5
CIG15 17 15 12 11 9 10 8 7 5 4 3 3
CoverOVCOVCOVCOVCOVCOVCOVCOVCOVCOVCOVCOVCOVC
FltCatMVFRMVFRMVFRMVFRMVFRIFRMVFRIFRIFRIFRLIFRLIFRLIFR
WX----+RA BRRA BR-RA-RA-RA--BRBRBR-RA BR-RA BR
WDir405040405090901201108090110110
WSpd7 5 7 8 5 6 5 5 4 6 4 4 3
WGst-- -- -- -- -- -- -- -- -- -- -- -- --
Raw hourly METARs
KDCA 250059Z 04007KT 10SM OVC015 10/09 A3015 RMK AO2 T01000089
KDCA 250152Z 05005KT 10SM OVC017 10/09 A3015 RMK AO2 RAB37E48 SLP211 P0000 T01000089
KDCA 250258Z 04007KT 3SM +RA BR OVC015 10/08 A3015 RMK AO2 P0001 T01000083
KDCA 250352Z 04008KT 4SM RA BR OVC012 10/08 A3013 RMK AO2 SLP201 P0005 T01000083
KDCA 250452Z 05005KT 7SM -RA BKN011 OVC018 09/09 A3012 RMK AO2 SLP200 P0008 T00940089 401170089
KDCA 250552Z 09006KT 8SM -RA OVC009 09/09 A3010 RMK AO2 SLP194 P0001 60014 T00940089 10106 20094 56014
KDCA 250652Z 09005KT 10SM -RA OVC010 09/08 A3007 RMK AO2 PRESFR SLP182 P0000 T00940083
KDCA 250752Z 12005KT 8SM OVC008 09/08 A3005 RMK AO2 RAE03 SLP176 P0000 T00940083
KDCA 250852Z 11004KT 6SM BR OVC007 09/08 A3004 RMK AO2 SLP171 60000 T00890083 56023
KDCA 250952Z 08006KT 4SM BR OVC005 09/08 A3001 RMK AO2 SLP162 T00890083
KDCA 251052Z 09004KT 2 1/2SM BR OVC004 09/08 A3000 RMK AO2 SLP157 T00890083
KDCA 251152Z 11004KT 1 1/4SM -RA BR OVC003 09/08 A2998 RMK AO2 RAB47 SLP150 P0000 60000 70017 T00890083 10094 20089 56021
KDCA 251252Z 11003KT 1 1/2SM R01/6000FT -RA BR OVC003 09/09 A2998 RMK AO2 RAE24B43 SLP153 P0000 T00890089